createdAt,value
2023-04-13T00:00:48.421Z,0.77
2023-04-13T00:03:18.172Z,0.50
2023-04-13T00:05:46.752Z,0.80
2023-04-13T00:08:14.215Z,0.50
2023-04-13T00:10:41.905Z,0.57
2023-04-13T00:13:10.717Z,0.50
2023-04-13T00:15:42.149Z,0.73
2023-04-13T00:18:10.961Z,0.60
2023-04-13T00:20:39.064Z,0.60
2023-04-13T00:23:06.114Z,0.80
2023-04-13T00:25:32.963Z,1.17
2023-04-13T00:28:03.737Z,0.40
2023-04-13T00:30:30.907Z,0.73
2023-04-13T00:32:57.794Z,0.40
2023-04-13T00:35:27.926Z,0.80
2023-04-13T00:37:54.893Z,0.70
2023-04-13T00:40:21.796Z,0.40
2023-04-13T00:42:50.159Z,0.87
2023-04-13T00:45:18.307Z,0.70
2023-04-13T00:47:47.548Z,0.80
2023-04-13T00:50:17.505Z,0.60
2023-04-13T00:52:45.924Z,1.13
2023-04-13T00:55:12.818Z,0.50
2023-04-13T00:57:41.083Z,1.10
2023-04-13T01:00:09.724Z,0.60
2023-04-13T01:02:42.168Z,0.60
2023-04-13T01:05:12.914Z,0.80
2023-04-13T01:07:51.723Z,0.73
2023-04-13T01:10:28.729Z,0.60
2023-04-13T01:13:30.840Z,0.90
2023-04-13T01:16:16.066Z,0.60
2023-04-13T01:18:45.686Z,0.93
2023-04-13T01:21:19.438Z,0.70
2023-04-13T01:24:16.990Z,0.80
2023-04-13T01:26:57.644Z,0.97
2023-04-13T01:29:26.826Z,0.73
2023-04-13T01:31:55.028Z,0.77
2023-04-13T01:34:23.437Z,1.07
2023-04-13T01:36:51.129Z,0.73
2023-04-13T01:39:21.718Z,0.53
2023-04-13T01:41:49.213Z,0.50
2023-04-13T01:44:16.057Z,0.80
2023-04-13T01:46:47.642Z,0.60
2023-04-13T01:49:19.597Z,1.10
2023-04-13T01:51:48.249Z,0.90
2023-04-13T01:54:20.625Z,0.93
2023-04-13T01:56:48.789Z,0.57
2023-04-13T01:59:16.648Z,0.60
2023-04-13T02:01:43.938Z,0.73
2023-04-13T02:04:11.084Z,0.80
2023-04-13T02:06:37.996Z,1.20
2023-04-13T02:09:06.952Z,0.73
2023-04-13T02:11:35.472Z,0.90
2023-04-13T02:14:02.410Z,0.90
2023-04-13T02:16:29.418Z,1.20
2023-04-13T02:18:58.461Z,0.70
2023-04-13T02:21:25.936Z,1.10
2023-04-13T02:23:52.944Z,0.90
2023-04-13T02:26:20.322Z,1.20
2023-04-13T02:28:47.299Z,1.03
2023-04-13T02:31:17.596Z,1.33
2023-04-13T02:33:44.781Z,1.00
2023-04-13T02:36:12.021Z,1.07
2023-04-13T02:38:38.875Z,1.37
2023-04-13T02:41:06.659Z,1.03
2023-04-13T02:43:34.407Z,1.47
2023-04-13T02:46:01.374Z,1.30
2023-04-13T02:48:28.353Z,1.10
2023-04-13T02:50:55.645Z,1.10
2023-04-13T02:53:23.503Z,1.33
2023-04-13T02:55:50.591Z,1.40
2023-04-13T02:58:17.671Z,1.10
2023-04-13T03:00:44.638Z,1.27
2023-04-13T03:03:11.824Z,1.00
2023-04-13T03:05:38.900Z,1.10
2023-04-13T03:08:06.345Z,1.07
2023-04-13T03:10:33.210Z,0.80
2023-04-13T03:13:00.137Z,0.70
2023-04-13T03:15:26.917Z,1.10
2023-04-13T03:17:53.798Z,0.60
2023-04-13T03:20:21.306Z,0.63
2023-04-13T03:22:48.080Z,0.90
2023-04-13T03:25:14.879Z,0.57
2023-04-13T03:27:41.811Z,0.90
2023-04-13T03:30:09.206Z,1.10
2023-04-13T03:32:36.549Z,0.90
2023-04-13T03:35:03.585Z,1.07
2023-04-13T03:37:32.638Z,1.13
2023-04-13T03:39:59.515Z,1.50
2023-04-13T03:42:26.555Z,1.60
2023-04-13T03:44:53.262Z,1.43
2023-04-13T03:47:20.443Z,1.30
2023-04-13T03:49:47.501Z,2.20
2023-04-13T03:52:14.292Z,1.97
2023-04-13T03:54:41.533Z,2.57
2023-04-13T03:57:08.581Z,2.60
2023-04-13T03:59:35.395Z,2.80
2023-04-13T04:02:04.906Z,2.67
2023-04-13T04:04:31.829Z,2.70
2023-04-13T04:06:59.414Z,3.33
2023-04-13T04:09:26.310Z,3.57
2023-04-13T04:11:53.143Z,3.70
2023-04-13T04:14:20.625Z,3.97
2023-04-13T04:16:47.511Z,3.53
2023-04-13T04:19:14.411Z,3.47
2023-04-13T04:21:46.863Z,3.67
2023-04-13T04:24:20.766Z,4.00
2023-04-13T04:26:50.572Z,4.20
2023-04-13T04:29:22.020Z,4.57
2023-04-13T04:31:53.807Z,4.37
2023-04-13T04:34:21.060Z,3.90
2023-04-13T04:36:52.064Z,4.00
2023-04-13T04:39:22.832Z,4.23
2023-04-13T04:41:54.247Z,4.03
2023-04-13T04:44:25.417Z,3.60
2023-04-13T04:46:53.059Z,4.10
2023-04-13T04:49:21.842Z,4.10
2023-04-13T04:51:49.390Z,3.87
2023-04-13T04:54:17.384Z,4.03
2023-04-13T04:56:45.521Z,3.33
2023-04-13T04:59:12.929Z,3.57
2023-04-13T05:01:40.521Z,3.30
2023-04-13T05:04:08.143Z,3.30
2023-04-13T05:06:35.094Z,2.73
2023-04-13T05:09:04.421Z,3.40
2023-04-13T05:11:32.331Z,3.03
2023-04-13T05:13:59.969Z,3.70
2023-04-13T05:16:30.548Z,3.27
2023-04-13T05:18:57.920Z,3.00
2023-04-13T05:21:25.030Z,3.50
2023-04-13T05:23:51.969Z,3.87
2023-04-13T05:26:20.462Z,3.73
2023-04-13T05:28:47.314Z,3.53
2023-04-13T05:31:15.967Z,4.23
2023-04-13T05:33:43.116Z,4.07
2023-04-13T05:36:10.067Z,4.23
2023-04-13T05:38:36.889Z,5.03
2023-04-13T05:41:03.778Z,3.93
2023-04-13T05:43:30.589Z,4.43
2023-04-13T05:45:57.377Z,4.70
2023-04-13T05:48:24.661Z,4.70
2023-04-13T05:50:51.493Z,4.00
2023-04-13T05:53:18.470Z,4.33
2023-04-13T05:55:48.028Z,3.37
2023-04-13T05:58:15.251Z,3.50
2023-04-13T06:00:43.277Z,3.63
2023-04-13T06:03:11.010Z,3.07
2023-04-13T06:05:38.900Z,2.63
2023-04-13T06:08:05.885Z,2.57
2023-04-13T06:10:32.891Z,2.80
2023-04-13T06:12:59.953Z,3.13
2023-04-13T06:15:26.770Z,2.60
2023-04-13T06:17:54.031Z,3.63
2023-04-13T06:20:21.675Z,2.50
2023-04-13T06:22:49.259Z,3.13
2023-04-13T06:25:16.578Z,2.77
2023-04-13T06:27:44.286Z,2.83
2023-04-13T06:30:12.289Z,2.90
2023-04-13T06:32:39.330Z,2.60
2023-04-13T06:35:06.735Z,2.67
2023-04-13T06:37:35.830Z,3.30
2023-04-13T06:40:14.959Z,3.33
2023-04-13T06:42:42.674Z,2.47
2023-04-13T06:45:11.656Z,2.83
2023-04-13T06:47:42.720Z,3.80
2023-04-13T06:50:14.149Z,4.03
2023-04-13T06:52:46.864Z,3.70
2023-04-13T06:55:14.169Z,3.70
2023-04-13T06:57:41.752Z,3.50
2023-04-13T07:00:25.980Z,3.87
2023-04-13T07:02:55.922Z,3.13
2023-04-13T07:05:22.876Z,4.00
2023-04-13T07:07:49.820Z,2.63
2023-04-13T07:10:16.688Z,3.97
2023-04-13T07:12:43.590Z,3.10
2023-04-13T07:15:10.545Z,3.03
2023-04-13T07:17:37.483Z,2.80
2023-04-13T07:20:05.809Z,3.07
2023-04-13T07:22:33.673Z,2.83
2023-04-13T07:25:00.878Z,2.57
2023-04-13T07:27:28.122Z,3.07
2023-04-13T07:29:55.667Z,2.73
2023-04-13T07:32:28.019Z,2.50
2023-04-13T07:35:01.372Z,2.43
2023-04-13T07:37:28.362Z,2.47
2023-04-13T07:39:55.290Z,2.30
2023-04-13T07:42:22.118Z,2.00
2023-04-13T07:44:48.925Z,2.17
2023-04-13T07:47:16.709Z,1.97
2023-04-13T07:49:43.595Z,1.93
2023-04-13T07:52:10.425Z,2.00
2023-04-13T07:54:37.265Z,2.20
2023-04-13T07:57:04.682Z,2.13
2023-04-13T07:59:31.567Z,1.90
2023-04-13T08:01:58.680Z,2.30
2023-04-13T08:04:25.884Z,2.20
2023-04-13T08:06:53.845Z,1.60
2023-04-13T08:09:21.051Z,2.30
2023-04-13T08:11:49.549Z,1.90
2023-04-13T08:14:16.699Z,2.00
2023-04-13T08:16:43.617Z,2.10
2023-04-13T08:19:11.080Z,1.80
2023-04-13T08:21:41.095Z,2.10
2023-04-13T08:24:07.935Z,2.13
2023-04-13T08:26:34.752Z,1.73
2023-04-13T08:29:01.739Z,1.80
2023-04-13T08:31:28.851Z,1.93
2023-04-13T08:33:57.588Z,1.90
2023-04-13T08:36:24.738Z,1.97
2023-04-13T08:38:51.481Z,1.93
2023-04-13T08:41:19.114Z,2.50
2023-04-13T08:43:47.265Z,2.13
2023-04-13T08:46:19.581Z,1.90
2023-04-13T08:49:05.070Z,2.57
2023-04-13T08:51:32.671Z,1.97
2023-04-13T08:53:59.955Z,2.10
2023-04-13T08:56:42.164Z,1.70
2023-04-13T08:59:13.006Z,1.67
2023-04-13T09:01:41.466Z,1.83
2023-04-13T09:04:11.009Z,1.70
2023-04-13T09:06:41.538Z,1.53
2023-04-13T09:09:11.182Z,1.63
2023-04-13T09:11:38.268Z,2.03
2023-04-13T09:14:05.920Z,1.77
2023-04-13T09:16:42.959Z,2.23
2023-04-13T09:19:11.518Z,1.67
2023-04-13T09:21:43.246Z,1.80
2023-04-13T09:24:10.908Z,1.80
2023-04-13T09:26:42.449Z,1.57
2023-04-13T09:29:21.892Z,1.77
2023-04-13T09:31:48.880Z,1.77
2023-04-13T09:34:27.564Z,1.90
2023-04-13T09:36:56.709Z,1.37
2023-04-13T09:39:26.841Z,1.60
2023-04-13T09:41:55.079Z,2.00
2023-04-13T09:44:28.415Z,2.13
2023-04-13T09:47:03.237Z,1.30
2023-04-13T09:49:43.244Z,1.37
2023-04-13T09:52:39.827Z,1.90
2023-04-13T09:55:16.949Z,1.50
2023-04-13T09:57:44.061Z,2.17
2023-04-13T10:00:21.856Z,1.67
2023-04-13T10:02:50.842Z,1.80
2023-04-13T10:05:19.717Z,1.63
2023-04-13T10:07:47.436Z,1.43
2023-04-13T10:10:14.639Z,1.80
2023-04-13T10:12:47.488Z,1.63
2023-04-13T10:15:42.742Z,1.73
2023-04-13T10:18:35.937Z,1.73
2023-04-13T10:21:03.995Z,1.50
2023-04-13T10:23:32.235Z,2.00
2023-04-13T10:26:00.792Z,1.67
2023-04-13T10:28:28.116Z,1.27
2023-04-13T10:30:54.931Z,1.50
2023-04-13T10:33:22.147Z,1.50
2023-04-13T10:36:00.491Z,1.67
2023-04-13T10:38:27.679Z,1.93
2023-04-13T10:40:54.596Z,1.20
2023-04-13T10:43:31.736Z,1.50
2023-04-13T10:46:10.195Z,1.93
2023-04-13T10:48:37.537Z,1.00
2023-04-13T10:51:04.494Z,1.57
2023-04-13T10:53:32.921Z,1.60
2023-04-13T10:56:00.428Z,1.47
2023-04-13T10:58:32.568Z,2.10
2023-04-13T11:00:59.968Z,1.83
2023-04-13T11:03:28.700Z,1.67
2023-04-13T11:05:58.167Z,1.90
2023-04-13T11:08:26.573Z,1.30
2023-04-13T11:10:55.042Z,1.27
2023-04-13T11:13:25.387Z,1.20
2023-04-13T11:15:59.970Z,1.50
2023-04-13T11:18:27.670Z,1.20
2023-04-13T11:20:54.953Z,1.37
2023-04-13T11:23:24.381Z,1.77
2023-04-13T11:25:58.507Z,1.60
2023-04-13T11:28:37.415Z,1.17
2023-04-13T11:31:04.588Z,1.20
2023-04-13T11:33:33.576Z,1.30
2023-04-13T11:36:01.279Z,1.67
2023-04-13T11:38:29.076Z,1.77
2023-04-13T11:41:15.182Z,1.67
2023-04-13T11:43:46.315Z,1.50
2023-04-13T11:46:15.467Z,1.30
2023-04-13T11:48:43.739Z,1.03
2023-04-13T11:51:11.472Z,1.90
2023-04-13T11:53:39.543Z,1.57
2023-04-13T11:56:07.392Z,1.27
2023-04-13T11:58:34.597Z,1.20
2023-04-13T12:01:13.821Z,1.63
2023-04-13T12:03:57.028Z,1.30
2023-04-13T12:06:31.023Z,1.40
2023-04-13T12:09:10.050Z,1.77
2023-04-13T12:11:44.331Z,1.23
2023-04-13T12:14:41.181Z,1.47
2023-04-13T12:17:26.244Z,1.50
2023-04-13T12:20:00.847Z,1.10
2023-04-13T12:22:49.813Z,1.23
2023-04-13T12:25:24.457Z,1.30
2023-04-13T12:27:53.314Z,1.13
2023-04-13T12:30:21.426Z,2.07
2023-04-13T12:32:55.623Z,1.40
2023-04-13T12:35:22.780Z,1.20
2023-04-13T12:37:52.837Z,1.00
2023-04-13T12:40:20.441Z,1.13
2023-04-13T12:42:47.636Z,0.80
2023-04-13T12:45:16.233Z,0.80
2023-04-13T12:47:43.041Z,1.10
2023-04-13T12:50:11.465Z,1.23
2023-04-13T12:52:42.966Z,1.23
2023-04-13T12:55:10.386Z,1.60
2023-04-13T12:57:37.342Z,1.27
2023-04-13T13:00:10.286Z,1.07
2023-04-13T13:02:37.934Z,0.90
2023-04-13T13:05:05.484Z,1.33
2023-04-13T13:07:32.386Z,1.10
2023-04-13T13:10:01.133Z,0.90
2023-04-13T13:12:30.281Z,0.90
2023-04-13T13:14:58.570Z,0.90
2023-04-13T13:17:25.500Z,0.90
2023-04-13T13:19:52.724Z,1.07
2023-04-13T13:22:19.706Z,1.03
2023-04-13T13:24:46.799Z,0.70
2023-04-13T13:27:48.532Z,2.00
2023-04-13T13:30:03.461Z,1.17
2023-04-13T13:32:30.609Z,1.07
2023-04-13T13:34:58.039Z,1.00
2023-04-13T13:37:24.919Z,0.90
2023-04-13T13:39:51.816Z,0.90
2023-04-13T13:42:18.783Z,1.17
2023-04-13T13:44:45.607Z,1.30
2023-04-13T13:47:12.485Z,1.40
2023-04-13T13:49:39.279Z,0.87
2023-04-13T13:52:06.241Z,1.20
2023-04-13T13:54:33.047Z,1.20
2023-04-13T13:56:59.869Z,1.00
2023-04-13T13:59:27.081Z,1.30
2023-04-13T14:01:53.985Z,2.80
2023-04-13T14:04:20.943Z,1.67
2023-04-13T14:06:49.689Z,1.10
2023-04-13T14:09:17.384Z,1.47
2023-04-13T14:11:44.334Z,1.20
2023-04-13T14:14:21.124Z,1.20
2023-04-13T14:16:49.136Z,1.27
2023-04-13T14:19:16.032Z,1.23
2023-04-13T14:21:42.902Z,1.40
2023-04-13T14:24:09.688Z,1.10
2023-04-13T14:26:38.234Z,1.00
2023-04-13T14:29:05.219Z,1.33
2023-04-13T14:31:32.077Z,1.10
2023-04-13T14:33:58.917Z,1.17
2023-04-13T14:36:26.919Z,1.00
2023-04-13T14:38:54.528Z,0.97
2023-04-13T14:41:21.282Z,0.87
2023-04-13T14:43:48.577Z,1.40
2023-04-13T14:46:15.713Z,0.87
2023-04-13T14:48:42.666Z,1.00
2023-04-13T14:51:15.176Z,0.90
2023-04-13T14:53:41.956Z,1.00
2023-04-13T14:56:09.335Z,1.13
2023-04-13T14:58:36.440Z,0.93
2023-04-13T15:01:04.721Z,1.00
2023-04-13T15:03:31.678Z,1.07
2023-04-13T15:06:03.958Z,1.07
2023-04-13T15:08:31.751Z,1.10
2023-04-13T15:10:59.308Z,1.03
2023-04-13T15:13:26.102Z,2.07
2023-04-13T15:15:54.818Z,1.43
2023-04-13T15:18:21.669Z,0.83
2023-04-13T15:20:48.644Z,1.00
2023-04-13T15:23:18.743Z,1.20
2023-04-13T15:25:46.923Z,1.07
2023-04-13T15:28:13.916Z,1.10
2023-04-13T15:30:43.014Z,1.07
2023-04-13T15:33:09.935Z,1.10
2023-04-13T15:35:37.237Z,0.73
2023-04-13T15:38:04.142Z,1.80
2023-04-13T15:40:35.612Z,0.63
2023-04-13T15:43:03.052Z,1.20
2023-04-13T15:45:30.180Z,0.90
2023-04-13T15:47:57.260Z,1.40
2023-04-13T15:50:25.037Z,0.73
2023-04-13T15:52:51.987Z,1.10
2023-04-13T15:55:21.083Z,1.27
2023-04-13T15:57:47.982Z,0.90
2023-04-13T16:00:15.492Z,1.20
2023-04-13T16:02:42.424Z,1.10
2023-04-13T16:05:09.474Z,0.80
2023-04-13T16:07:36.847Z,1.10
2023-04-13T16:10:04.330Z,1.07
2023-04-13T16:12:31.834Z,1.20
2023-04-13T16:14:59.702Z,0.90
2023-04-13T16:17:33.730Z,1.30
2023-04-13T16:20:14.226Z,2.27
2023-04-13T16:22:48.751Z,1.30
2023-04-13T16:25:16.561Z,1.03
2023-04-13T16:27:43.480Z,1.10
2023-04-13T16:30:12.327Z,1.00
2023-04-13T16:32:44.480Z,1.80
2023-04-13T16:35:11.958Z,1.13
2023-04-13T16:37:42.870Z,1.20
2023-04-13T16:40:11.030Z,1.57
2023-04-13T16:42:41.436Z,1.63
2023-04-13T16:45:12.259Z,1.37
2023-04-13T16:47:42.156Z,1.63
2023-04-13T16:50:10.715Z,1.60
2023-04-13T16:52:38.933Z,2.00
2023-04-13T16:55:06.355Z,1.33
2023-04-13T16:57:33.670Z,1.53
2023-04-13T17:00:06.402Z,1.30
2023-04-13T17:02:41.989Z,1.47
2023-04-13T17:05:10.900Z,1.63
2023-04-13T17:07:42.589Z,1.23
2023-04-13T17:10:09.875Z,1.07
2023-04-13T17:12:36.940Z,1.60
2023-04-13T17:15:05.468Z,1.30
2023-04-13T17:17:32.299Z,1.13
2023-04-13T17:19:59.137Z,1.40
2023-04-13T17:22:26.050Z,2.20
2023-04-13T17:24:52.849Z,2.23
2023-04-13T17:27:19.662Z,2.37
2023-04-13T17:29:46.495Z,1.57
2023-04-13T17:32:13.355Z,2.17
2023-04-13T17:34:40.182Z,4.13
2023-04-13T17:37:07.609Z,1.97
2023-04-13T17:39:36.125Z,1.73
2023-04-13T17:42:03.276Z,1.83
2023-04-13T17:44:30.505Z,1.70
2023-04-13T17:46:57.343Z,2.20
2023-04-13T17:49:26.185Z,1.40
2023-04-13T17:51:53.159Z,2.13
2023-04-13T17:54:20.035Z,1.70
2023-04-13T17:56:47.334Z,1.90
2023-04-13T17:59:17.122Z,1.27
2023-04-13T18:01:44.294Z,0.97
2023-04-13T18:04:14.861Z,1.83
2023-04-13T18:06:41.853Z,1.93
2023-04-13T18:09:09.277Z,1.57
2023-04-13T18:11:36.144Z,1.70
2023-04-13T18:14:03.197Z,1.73
2023-04-13T18:16:31.842Z,1.57
2023-04-13T18:18:58.878Z,2.33
2023-04-13T18:21:25.968Z,1.73
2023-04-13T18:23:52.930Z,1.70
2023-04-13T18:26:19.931Z,1.50
2023-04-13T18:28:46.687Z,1.87
2023-04-13T18:31:13.678Z,1.20
2023-04-13T18:33:40.462Z,1.73
2023-04-13T18:36:07.526Z,1.50
2023-04-13T18:38:34.372Z,1.20
2023-04-13T18:41:01.677Z,1.23
2023-04-13T18:43:28.478Z,1.17
2023-04-13T18:45:55.252Z,1.70
2023-04-13T18:48:22.028Z,1.50
2023-04-13T18:50:48.799Z,1.80
2023-04-13T18:53:15.906Z,1.80
2023-04-13T18:55:48.864Z,1.80
2023-04-13T18:58:16.699Z,1.53
2023-04-13T19:00:43.539Z,1.40
2023-04-13T19:03:10.474Z,1.93
2023-04-13T19:05:37.542Z,1.43
2023-04-13T19:08:07.223Z,1.30
2023-04-13T19:10:34.070Z,1.30
2023-04-13T19:13:00.831Z,1.47
2023-04-13T19:15:28.000Z,1.60
2023-04-13T19:17:54.842Z,1.20
2023-04-13T19:20:23.742Z,1.63
2023-04-13T19:22:51.376Z,1.57
2023-04-13T19:25:18.512Z,1.63
2023-04-13T19:27:46.339Z,2.20
2023-04-13T19:30:14.696Z,1.90
2023-04-13T19:32:43.700Z,1.67
2023-04-13T19:35:10.878Z,2.00
2023-04-13T19:37:38.467Z,2.93
2023-04-13T19:40:15.347Z,2.20
2023-04-13T19:42:43.860Z,1.73
2023-04-13T19:45:11.672Z,1.93
2023-04-13T19:47:39.694Z,1.80
2023-04-13T19:50:09.503Z,1.83
2023-04-13T19:52:36.657Z,1.70
2023-04-13T19:55:03.710Z,1.50
2023-04-13T19:57:30.698Z,1.80
2023-04-13T19:59:57.966Z,1.50
2023-04-13T20:02:24.952Z,1.33
2023-04-13T20:04:52.179Z,1.30
2023-04-13T20:07:19.085Z,1.30
2023-04-13T20:09:46.368Z,5.10
2023-04-13T20:12:13.465Z,2.00
2023-04-13T20:14:42.238Z,7.67
2023-04-13T20:17:09.639Z,2.97
2023-04-13T20:19:36.881Z,2.13
2023-04-13T20:22:04.938Z,1.80
2023-04-13T20:24:31.975Z,1.40
2023-04-13T20:26:58.983Z,1.40
2023-04-13T20:29:27.331Z,1.63
2023-04-13T20:31:54.584Z,1.70
2023-04-13T20:34:21.995Z,2.20
2023-04-13T20:36:49.024Z,2.57
2023-04-13T20:39:18.662Z,2.00
2023-04-13T20:41:50.782Z,1.97
2023-04-13T20:44:24.038Z,2.03
2023-04-13T20:46:54.630Z,1.60
2023-04-13T20:49:23.335Z,2.20
2023-04-13T20:51:53.681Z,2.83
2023-04-13T20:54:21.581Z,2.30
2023-04-13T20:56:49.207Z,3.80
2023-04-13T20:59:18.090Z,2.47
2023-04-13T21:01:45.708Z,3.10
2023-04-13T21:04:12.742Z,3.00
2023-04-13T21:06:40.524Z,2.77
2023-04-13T21:09:08.914Z,3.57
2023-04-13T21:11:36.027Z,2.67
2023-04-13T21:14:03.986Z,2.67
2023-04-13T21:16:31.476Z,2.70
2023-04-13T21:18:58.371Z,2.87
2023-04-13T21:21:26.929Z,2.87
2023-04-13T21:23:54.443Z,2.80
2023-04-13T21:26:21.452Z,2.80
2023-04-13T21:28:48.449Z,2.93
2023-04-13T21:31:15.618Z,3.67
2023-04-13T21:33:42.961Z,3.97
2023-04-13T21:38:41.762Z,3.07
2023-04-13T21:41:16.127Z,2.73
2023-04-13T21:43:42.962Z,2.90
2023-04-13T21:46:11.024Z,2.63
2023-04-13T21:48:37.964Z,2.87
2023-04-13T21:51:08.806Z,2.53
2023-04-13T21:53:36.730Z,2.50
2023-04-13T21:56:04.655Z,2.70
2023-04-13T21:58:41.793Z,2.67
2023-04-13T22:01:08.962Z,2.30
2023-04-13T22:03:45.738Z,2.70
2023-04-13T22:06:12.894Z,2.40
2023-04-13T22:08:40.493Z,3.10
2023-04-13T22:11:07.259Z,2.27
2023-04-13T22:13:34.297Z,2.63
2023-04-13T22:16:01.333Z,2.60
2023-04-13T22:18:30.930Z,2.73
2023-04-13T22:20:59.624Z,2.57
2023-04-13T22:23:26.882Z,2.60
2023-04-13T22:26:01.732Z,2.43
2023-04-13T22:28:30.444Z,2.20
2023-04-13T22:30:58.061Z,2.80
2023-04-13T22:33:24.833Z,2.07
2023-04-13T22:35:55.186Z,2.70
2023-04-13T22:38:21.915Z,2.77
2023-04-13T22:40:48.707Z,3.07
2023-04-13T22:43:15.916Z,2.57
2023-04-13T22:45:42.881Z,3.13
2023-04-13T22:48:09.641Z,2.60
2023-04-13T22:50:38.017Z,2.30
2023-04-13T22:53:05.056Z,2.57
2023-04-13T22:55:31.931Z,2.40
2023-04-13T22:57:58.713Z,2.20
2023-04-13T23:00:25.590Z,2.20
2023-04-13T23:02:55.838Z,2.30
2023-04-13T23:05:23.291Z,2.20
2023-04-13T23:07:50.829Z,2.17
2023-04-13T23:10:17.932Z,2.17
2023-04-13T23:12:45.486Z,2.27
2023-04-13T23:15:13.113Z,2.50
2023-04-13T23:17:39.988Z,2.73
2023-04-13T23:20:07.337Z,2.33
2023-04-13T23:22:34.351Z,2.50
2023-04-13T23:25:01.223Z,2.87
2023-04-13T23:27:28.005Z,2.50
2023-04-13T23:29:54.833Z,3.00
2023-04-13T23:32:21.886Z,2.80
2023-04-13T23:34:48.817Z,2.40
2023-04-13T23:37:15.605Z,2.40
2023-04-13T23:39:42.373Z,2.53
2023-04-13T23:42:09.352Z,3.00
2023-04-13T23:44:36.377Z,2.40
2023-04-13T23:47:03.360Z,3.00
2023-04-13T23:49:30.218Z,2.60
2023-04-13T23:51:57.083Z,2.80
2023-04-13T23:54:24.044Z,2.70
2023-04-13T23:56:51.141Z,2.87
2023-04-13T23:59:18.799Z,3.30
